Aérodrome :
LOGIN :

S'inscrire | Disclaimer

   EN    FR    IT 

 










Légende :    VFR   VFR Marginal   IFR   IFR Intensif   IFR Très Intensif
Visi : 
Plafond : 
>= 8 km
>= 3000ft
5 à 8 km
1000 à 3000 ft
1500m à 5 km
500 à 1000 ft
800 à 1500m
200 à 500 ft
< 800m
< 200 ft
Symboles :   Orages  Brouillard  Fortes neiges  Fortes précipitations  Vent > 20 kt
SIGMETs :   Divers  Orages  Givrage  Turbulence  Onde Orograph.  Cendres Volcan.







- Altitude de l'aérodrome : 20 ft


EBFN - Koksijde

DERNIER METAR :
  • 192025Z 20003KT 9999 FEW015 SCT050 11/11 Q1022 BLU BLU

METARs EXPIRÉS :
  • 191955Z 30004KT 9999 FEW015 BKN050 12/10 Q1022 BLU BLU
  • 191925Z 24004KT 9999 FEW015 BKN050 12/12 Q1022 BLU BLU
  • 191855Z VRB01KT 9999 FEW015 BKN050 12/12 Q1022 BLU BLU
  • 191825Z 31004KT 9999 FEW015 SCT050 13/12 Q1022 BLU BLU
  • 191755Z 32004KT 9999 FEW013 SCT050 13/12 Q1022 BLU BLU
  • 191725Z 31006KT 9999 FEW009 BKN050 14/12 Q1021 BLU WHT TEMPO GRN

TAF TAF EBFN
Valide du 19 à 19h jusqu'au 20 à 07h UTC


191541Z 1919/2007 24007KT 9999 BKN030
TEMPO 1919/1923 BKN015
TEMPO 2002/2007 4500 BR FEW004 SCT040
Pas de NOTAMs connus pour ce terrain.



MET'MAP, la Météo Aéronautique d'un coup d'oeil ! - Copyright ORBIFLY Décembre 2007 - Disclaimer

ORBIFLY MET'MAP TEAM :

Programmation & Développement : Alexandra Zaïnal
Conception & Développement : Baudouin d'Aumeries
Co-Programmation & Développement : Marc-Olivier Méhu
Soutien technique & logistique : Manuel Goepfert

Contact : metmap@orbifly.com




SOURCES & CREDITS :

   NOAA